Terminal Aerodrome Forecast
Issued by NWS Wakefield, VA

Current Version | Previous Version | Text Only | Print | Product List | Glossary On
Versions: 1 2 3 4 5 6 7 8 9 10 11 12 13 14 15 16 17 18 19 20 21 22 23 24 25 26 27 28 29 30 31 32 33 34 35 36
116
FTUS41 KAKQ 171138
TAFECG
TAF
KECG 171138Z 1712/1812 VRB03KT P6SM SCT003
      TEMPO 1712/1713 4SM BR SCT250
     FM171330 13004KT P6SM SCT090
     FM171700 14006KT P6SM FEW080
     FM180400 17006KT P6SM BKN070=

USA.gov is the U.S. government's official web portal to all federal, state and local government web resources and services.